Time;durP1;ratioP1;P1;durP2;ratioP2;P2;SDS_P1;SDS_P2;PMS_P1;PMS_P2;Temp;Humidity;BMP_temperature;BMP_pressure;BME280_temperature;BME280_humidity;BME280_pressure;Samples;Min_cycle;Max_cycle;Signal;HPM_P1;HPM_P2
2022/10/15 00:01:10;;;;;;;;;;;12.50;99.90;;;;;;5095348;28;20376;-66
2022/10/15 00:03:37;;;;;;;;;;;12.40;99.90;;;;;;5095025;28;19908;-66
2022/10/15 00:06:03;;;;;;;;;;;12.40;99.90;;;;;;5094958;28;19912;-66
2022/10/15 00:08:29;;;;;;;;;;;12.30;99.90;;;;;;5095083;28;19969;-66
2022/10/15 00:10:54;;;;;;;;;;;12.30;99.90;;;;;;5094880;28;19973;-66
2022/10/15 00:13:20;;;;;;;;;;;12.20;99.90;;;;;;5094096;28;20491;-66
2022/10/15 00:15:45;;;;;;;;;;;12.20;99.90;;;;;;5094829;28;20315;-66
2022/10/15 00:18:11;;;;;;;;;;;12.10;99.90;;;;;;5094727;28;19908;-66
2022/10/15 00:20:39;;;;;;;;;;;12.10;99.90;;;;;;5094659;28;19995;-66
2022/10/15 00:23:05;;;;;;;;;;;12.10;99.90;;;;;;5094661;28;19908;-66
2022/10/15 00:25:30;;;;;;;;;;;12.00;99.90;;;;;;5094611;28;20007;-66
2022/10/15 00:27:56;;;;;;;;;;;12.00;99.90;;;;;;5094270;28;19928;-66
2022/10/15 00:30:21;;;;;;;;;;;11.90;99.90;;;;;;5094567;28;19912;-66
2022/10/15 00:32:47;;;;;;;;;;;11.80;99.90;;;;;;5076364;28;19908;-66
2022/10/15 00:35:12;;;;;;;;;;;11.90;99.90;;;;;;5094433;28;19919;-66
2022/10/15 00:37:38;;;;;;;;;;;11.90;99.90;;;;;;5094690;28;19915;-66
2022/10/15 00:40:03;;;;;;;;;;;11.90;99.90;;;;;;5094371;28;19908;-66
2022/10/15 00:42:29;;;;;;;;;;;11.90;99.90;;;;;;5094314;28;19908;-66
2022/10/15 00:44:55;;;;;;;;;;;11.80;99.90;;;;;;5094511;28;19908;-66
2022/10/15 00:47:24;;;;;;;;;;;11.80;99.90;;;;;;5094469;28;19908;-66
2022/10/15 00:49:54;;;;;;;;;;;11.70;99.90;;;;;;5094122;28;19913;-66
2022/10/15 00:52:22;;;;;;;;;;;11.70;99.90;;;;;;5094183;28;20384;-66
2022/10/15 00:54:51;;;;;;;;;;;11.70;99.90;;;;;;5094363;28;19958;-66
2022/10/15 00:57:17;;;;;;;;;;;11.60;99.90;;;;;;5094101;28;20326;-66
2022/10/15 00:59:46;;;;;;;;;;;11.60;99.90;;;;;;5094288;28;19912;-66
2022/10/15 01:02:12;;;;;;;;;;;11.60;99.90;;;;;;5093995;28;20265;-66
2022/10/15 01:04:37;;;;;;;;;;;11.50;99.90;;;;;;5094020;28;19957;-66
2022/10/15 01:07:03;;;;;;;;;;;11.50;99.90;;;;;;5094189;28;19919;-66
2022/10/15 01:09:28;;;;;;;;;;;11.50;99.90;;;;;;5093836;28;20011;-66
2022/10/15 01:11:54;;;;;;;;;;;11.50;99.90;;;;;;5093870;28;19912;-66
2022/10/15 01:14:40;;;;;;;;;;;11.50;99.90;;;;;;5094075;28;19972;-65
2022/10/15 01:17:12;;;;;;;;;;;11.50;99.90;;;;;;5093747;28;20295;-66
2022/10/15 01:19:57;;;;;;;;;;;11.50;99.90;;;;;;5094014;28;20361;-66
2022/10/15 01:22:40;;;;;;;;;;;11.60;99.90;;;;;;5093605;28;19912;-65
2022/10/15 01:25:13;;;;;;;;;;;11.60;99.90;;;;;;5093593;28;19930;-66
2022/10/15 01:27:44;;;;;;;;;;;11.70;99.90;;;;;;5093384;28;19923;-66
2022/10/15 01:30:15;;;;;;;;;;;11.70;99.90;;;;;;5093671;28;20254;-65
2022/10/15 01:32:52;;;;;;;;;;;11.70;99.90;;;;;;5093604;28;19912;-66
2022/10/15 01:35:37;;;;;;;;;;;11.80;99.90;;;;;;5093632;28;19955;-65
2022/10/15 01:38:09;;;;;;;;;;;11.80;99.90;;;;;;5093410;28;19952;-66
2022/10/15 01:40:54;;;;;;;;;;;11.80;99.90;;;;;;5093558;28;19915;-66
2022/10/15 01:43:30;;;;;;;;;;;11.80;99.90;;;;;;5093481;28;19912;-66
2022/10/15 01:46:01;;;;;;;;;;;11.90;99.90;;;;;;5093503;28;19908;-66
2022/10/15 01:48:28;;;;;;;;;;;11.90;99.90;;;;;;5075418;28;20377;-66
2022/10/15 01:50:56;;;;;;;;;;;12.00;99.90;;;;;;5093450;28;19957;-65
2022/10/15 01:53:25;;;;;;;;;;;12.00;99.90;;;;;;5093368;28;20307;-66
2022/10/15 01:55:53;;;;;;;;;;;12.00;99.90;;;;;;5093655;28;19908;-66
2022/10/15 01:58:19;;;;;;;;;;;12.00;99.90;;;;;;5075276;28;19908;-66
2022/10/15 02:00:46;;;;;;;;;;;12.00;99.90;;;;;;5093319;28;20041;-66
2022/10/15 02:03:11;;;;;;;;;;;12.10;99.90;;;;;;5093309;28;19908;-66
2022/10/15 02:05:40;;;;;;;;;;;12.10;99.90;;;;;;5093565;28;19916;-66
2022/10/15 02:08:09;;;;;;;;;;;12.10;99.90;;;;;;5093494;28;20381;-65
2022/10/15 02:10:42;;;;;;;;;;;12.10;99.90;;;;;;5093533;28;20385;-66
2022/10/15 02:13:13;;;;;;;;;;;12.20;99.90;;;;;;5093286;28;19908;-66
2022/10/15 02:15:44;;;;;;;;;;;12.20;99.90;;;;;;5093496;28;19958;-66
2022/10/15 02:20:55;;;;;;;;;;;12.20;99.90;;;;;;5144746;27;19934;-65
2022/10/15 02:23:24;;;;;;;;;;;12.30;99.90;;;;;;5111431;28;19918;-66
2022/10/15 02:25:51;;;;;;;;;;;12.30;99.90;;;;;;5111670;28;20369;-66
2022/10/15 02:28:17;;;;;;;;;;;12.30;99.90;;;;;;5111613;28;20336;-66
2022/10/15 02:30:44;;;;;;;;;;;12.40;99.90;;;;;;5111286;28;19950;-65
2022/10/15 02:33:10;;;;;;;;;;;12.40;99.90;;;;;;5111541;28;19948;-66
2022/10/15 02:35:36;;;;;;;;;;;12.40;99.90;;;;;;5111675;28;20360;-66
2022/10/15 02:38:04;;;;;;;;;;;12.40;99.90;;;;;;5111455;28;19941;-66
2022/10/15 02:40:31;;;;;;;;;;;12.40;99.90;;;;;;5111261;28;19912;-65
2022/10/15 02:42:58;;;;;;;;;;;12.40;99.90;;;;;;5111392;28;19908;-65
2022/10/15 02:45:23;;;;;;;;;;;12.40;99.90;;;;;;5111023;28;19965;-66
2022/10/15 02:47:49;;;;;;;;;;;12.50;99.90;;;;;;5111229;28;19915;-66
2022/10/15 02:50:14;;;;;;;;;;;12.50;99.90;;;;;;5111008;28;20441;-65
2022/10/15 02:52:40;;;;;;;;;;;12.50;99.90;;;;;;5110939;28;19908;-65
2022/10/15 02:55:05;;;;;;;;;;;12.50;99.90;;;;;;5110882;28;19954;-66
2022/10/15 02:57:31;;;;;;;;;;;12.50;99.90;;;;;;5111070;28;19911;-65
2022/10/15 02:59:56;;;;;;;;;;;12.50;99.90;;;;;;5110938;28;19919;-66
2022/10/15 03:02:22;;;;;;;;;;;12.50;99.90;;;;;;5110965;28;19908;-66
2022/10/15 03:04:47;;;;;;;;;;;12.50;99.90;;;;;;5110974;28;19929;-66
2022/10/15 03:07:13;;;;;;;;;;;12.50;99.90;;;;;;5110622;28;20266;-66
2022/10/15 03:09:38;;;;;;;;;;;12.50;99.90;;;;;;5110620;28;19944;-65
2022/10/15 03:12:04;;;;;;;;;;;12.50;99.90;;;;;;5110824;28;20412;-65
2022/10/15 03:14:29;;;;;;;;;;;12.50;99.90;;;;;;5110508;28;19908;-66
2022/10/15 03:16:55;;;;;;;;;;;12.40;99.90;;;;;;5110470;28;20366;-65
2022/10/15 03:19:20;;;;;;;;;;;12.40;99.90;;;;;;5110251;28;19931;-65
2022/10/15 03:21:46;;;;;;;;;;;12.30;99.90;;;;;;5110396;28;19916;-65
2022/10/15 03:24:11;;;;;;;;;;;12.30;99.90;;;;;;5110568;28;19915;-66
2022/10/15 03:26:37;;;;;;;;;;;12.20;99.90;;;;;;5110286;28;19908;-65
2022/10/15 03:29:03;;;;;;;;;;;12.10;99.90;;;;;;5110221;28;20340;-66
2022/10/15 03:31:28;;;;;;;;;;;12.00;99.90;;;;;;5100578;28;20323;-65
2022/10/15 03:33:53;;;;;;;;;;;11.90;99.90;;;;;;5096815;28;19908;-65
2022/10/15 03:36:19;;;;;;;;;;;11.90;99.90;;;;;;5095309;28;20053;-66
2022/10/15 03:38:44;;;;;;;;;;;11.90;99.90;;;;;;5096397;28;19916;-65
2022/10/15 03:41:10;;;;;;;;;;;11.90;99.90;;;;;;5096778;28;19986;-65
2022/10/15 03:43:35;;;;;;;;;;;11.90;99.90;;;;;;5096610;28;19908;-65
2022/10/15 03:46:02;;;;;;;;;;;12.00;99.90;;;;;;5096329;28;19995;-66
2022/10/15 03:48:28;;;;;;;;;;;12.00;99.90;;;;;;5096253;28;19991;-65
2022/10/15 03:50:53;;;;;;;;;;;12.10;99.90;;;;;;5096175;28;19970;-65
2022/10/15 03:53:18;;;;;;;;;;;12.00;99.90;;;;;;5096413;28;19908;-65
2022/10/15 03:55:44;;;;;;;;;;;12.00;99.90;;;;;;5096075;28;20408;-66
2022/10/15 03:58:09;;;;;;;;;;;11.90;99.90;;;;;;5096323;28;19908;-65
2022/10/15 04:00:35;;;;;;;;;;;11.90;99.90;;;;;;5095924;28;19912;-65
2022/10/15 04:03:00;;;;;;;;;;;11.90;99.90;;;;;;5095967;28;19916;-65
2022/10/15 04:05:26;;;;;;;;;;;11.90;99.90;;;;;;5096252;28;20279;-65
2022/10/15 04:07:51;;;;;;;;;;;12.00;99.90;;;;;;5095777;28;19908;-66
2022/10/15 04:10:17;;;;;;;;;;;12.00;99.90;;;;;;5095781;28;20049;-66
2022/10/15 04:12:42;;;;;;;;;;;12.00;99.90;;;;;;5095902;28;19912;-65
2022/10/15 04:15:08;;;;;;;;;;;12.00;99.90;;;;;;5095761;28;20002;-65
2022/10/15 04:17:33;;;;;;;;;;;11.90;99.90;;;;;;5095650;28;19915;-66
2022/10/15 04:19:59;;;;;;;;;;;12.00;99.90;;;;;;5094164;28;19951;-65
2022/10/15 04:22:24;;;;;;;;;;;12.00;99.90;;;;;;5095877;28;19908;-66
2022/10/15 04:24:50;;;;;;;;;;;12.00;99.90;;;;;;5095588;28;20369;-65
2022/10/15 04:27:15;;;;;;;;;;;12.00;99.90;;;;;;5095565;28;19908;-65
2022/10/15 04:29:41;;;;;;;;;;;12.00;99.90;;;;;;5094363;28;20365;-66
2022/10/15 04:32:06;;;;;;;;;;;12.00;99.90;;;;;;5095446;28;19908;-65
2022/10/15 04:34:31;;;;;;;;;;;11.90;99.90;;;;;;5095638;28;19908;-65
2022/10/15 04:36:57;;;;;;;;;;;11.90;99.90;;;;;;5095323;28;19908;-66
2022/10/15 04:39:22;;;;;;;;;;;11.90;99.90;;;;;;5095184;28;19912;-65
2022/10/15 04:41:48;;;;;;;;;;;12.00;99.90;;;;;;5094844;28;19908;-65
2022/10/15 04:44:13;;;;;;;;;;;11.90;99.90;;;;;;5094567;28;19951;-65
2022/10/15 04:46:39;;;;;;;;;;;11.90;99.90;;;;;;5095394;28;19908;-65
2022/10/15 04:49:04;;;;;;;;;;;11.90;99.90;;;;;;5095088;28;19995;-65
2022/10/15 04:51:30;;;;;;;;;;;11.90;99.90;;;;;;5094977;28;19962;-65
2022/10/15 04:53:55;;;;;;;;;;;11.90;99.90;;;;;;5094966;28;19908;-66
2022/10/15 04:56:21;;;;;;;;;;;11.90;99.90;;;;;;5095162;28;19912;-66
2022/10/15 04:58:47;;;;;;;;;;;12.00;99.90;;;;;;5095068;28;19912;-65
2022/10/15 05:01:14;;;;;;;;;;;12.10;99.90;;;;;;5095000;28;19915;-65
2022/10/15 05:03:41;;;;;;;;;;;12.10;99.90;;;;;;5095075;28;19931;-65
2022/10/15 05:06:07;;;;;;;;;;;12.10;99.90;;;;;;5094982;28;19912;-65
2022/10/15 05:08:33;;;;;;;;;;;12.20;99.90;;;;;;5094664;28;19927;-65
2022/10/15 05:11:01;;;;;;;;;;;12.30;99.90;;;;;;5094698;28;19951;-65
2022/10/15 05:13:27;;;;;;;;;;;12.30;99.90;;;;;;5094870;28;19916;-65
2022/10/15 05:15:52;;;;;;;;;;;12.40;99.90;;;;;;5094557;28;20277;-65
2022/10/15 05:18:18;;;;;;;;;;;12.40;99.90;;;;;;5094553;28;19908;-65
2022/10/15 05:20:43;;;;;;;;;;;12.50;99.90;;;;;;5094242;28;20410;-65
2022/10/15 05:23:08;;;;;;;;;;;12.60;99.90;;;;;;5094438;28;19912;-65
2022/10/15 05:25:34;;;;;;;;;;;12.60;99.90;;;;;;5094345;28;19908;-65
2022/10/15 05:27:59;;;;;;;;;;;12.70;99.90;;;;;;5094353;28;20003;-65
2022/10/15 05:30:25;;;;;;;;;;;12.80;99.90;;;;;;5094333;28;19908;-66
2022/10/15 05:32:51;;;;;;;;;;;12.80;99.90;;;;;;5094531;28;19916;-65
2022/10/15 05:35:17;;;;;;;;;;;12.80;99.90;;;;;;5094162;28;19950;-66
2022/10/15 05:37:42;;;;;;;;;;;12.90;99.90;;;;;;5094473;28;19908;-65
2022/10/15 05:40:08;;;;;;;;;;;12.90;99.90;;;;;;5094077;28;20399;-65
2022/10/15 05:42:34;;;;;;;;;;;12.90;99.90;;;;;;5094130;28;19908;-65
2022/10/15 05:44:59;;;;;;;;;;;13.00;99.90;;;;;;5094062;28;19931;-65
2022/10/15 05:47:24;;;;;;;;;;;13.00;99.90;;;;;;5094009;28;19907;-65
2022/10/15 05:49:50;;;;;;;;;;;13.10;99.90;;;;;;5093991;28;19908;-65
2022/10/15 05:52:16;;;;;;;;;;;13.00;99.90;;;;;;5094190;28;19915;-65
2022/10/15 05:54:41;;;;;;;;;;;13.10;99.90;;;;;;5093909;28;20009;-65
2022/10/15 05:57:06;;;;;;;;;;;13.10;99.90;;;;;;5094160;28;19911;-65
2022/10/15 05:59:32;;;;;;;;;;;13.10;99.90;;;;;;5093773;28;20276;-65
2022/10/15 06:01:57;;;;;;;;;;;13.10;99.90;;;;;;5094048;28;19912;-65
2022/10/15 06:04:23;;;;;;;;;;;13.10;99.90;;;;;;5092614;28;19908;-65
2022/10/15 06:06:48;;;;;;;;;;;13.10;99.90;;;;;;5094027;28;19912;-65
2022/10/15 06:09:14;;;;;;;;;;;13.10;99.90;;;;;;5093747;28;19912;-65
2022/10/15 06:11:39;;;;;;;;;;;13.00;99.90;;;;;;5093760;28;19908;-65
2022/10/15 06:14:05;;;;;;;;;;;13.00;99.90;;;;;;5093993;28;19916;-65
2022/10/15 06:16:32;;;;;;;;;;;13.00;99.90;;;;;;5093719;28;19916;-65
2022/10/15 06:18:57;;;;;;;;;;;13.00;99.90;;;;;;5093487;28;19920;-66
2022/10/15 06:21:23;;;;;;;;;;;13.10;99.90;;;;;;5093660;28;19931;-66
2022/10/15 06:23:48;;;;;;;;;;;13.10;99.90;;;;;;5093655;28;20254;-66
2022/10/15 06:26:14;;;;;;;;;;;13.10;99.90;;;;;;5093644;28;19916;-66
2022/10/15 06:28:39;;;;;;;;;;;13.30;99.90;;;;;;5093591;28;19908;-65
2022/10/15 06:31:05;;;;;;;;;;;13.40;99.90;;;;;;5093776;28;19909;-66
2022/10/15 06:33:32;;;;;;;;;;;13.40;99.90;;;;;;5093523;28;19998;-66
2022/10/15 06:36:00;;;;;;;;;;;13.40;99.90;;;;;;5093514;28;19908;-66
2022/10/15 06:38:26;;;;;;;;;;;13.30;99.90;;;;;;5093492;28;19915;-65
2022/10/15 06:40:51;;;;;;;;;;;13.20;99.90;;;;;;5093421;28;19916;-66
2022/10/15 06:43:16;;;;;;;;;;;13.20;99.90;;;;;;5093380;28;20388;-66
2022/10/15 06:45:43;;;;;;;;;;;13.20;99.90;;;;;;5092138;28;20361;-66
2022/10/15 06:48:09;;;;;;;;;;;13.30;99.90;;;;;;5093431;28;19915;-66
2022/10/15 06:50:36;;;;;;;;;;;13.30;99.90;;;;;;5093601;28;19908;-66
2022/10/15 06:53:02;;;;;;;;;;;13.20;99.90;;;;;;5093268;28;19919;-66
2022/10/15 06:55:28;;;;;;;;;;;13.20;99.90;;;;;;5093266;28;19938;-66
2022/10/15 06:57:55;;;;;;;;;;;13.20;99.90;;;;;;5093520;28;19908;-66
2022/10/15 07:00:20;;;;;;;;;;;13.30;99.90;;;;;;5091959;28;19912;-66
2022/10/15 07:02:46;;;;;;;;;;;13.40;99.90;;;;;;5093229;28;19908;-67
2022/10/15 07:05:11;;;;;;;;;;;13.50;99.90;;;;;;5093263;28;19919;-67
2022/10/15 07:07:36;;;;;;;;;;;13.60;99.90;;;;;;5097137;28;19909;-67
2022/10/15 07:10:02;;;;;;;;;;;13.70;99.90;;;;;;5097013;28;19908;-67
2022/10/15 07:12:27;;;;;;;;;;;13.80;99.90;;;;;;5096987;28;19995;-67
2022/10/15 07:14:53;;;;;;;;;;;14.00;99.90;;;;;;5097233;28;19999;-67
2022/10/15 07:17:18;;;;;;;;;;;14.20;99.90;;;;;;5096883;28;19915;-67
2022/10/15 07:19:44;;;;;;;;;;;14.20;99.90;;;;;;5095280;28;19942;-66
2022/10/15 07:22:10;;;;;;;;;;;14.20;99.90;;;;;;5096810;28;19958;-67
2022/10/15 07:24:35;;;;;;;;;;;14.10;99.90;;;;;;5096974;28;19908;-67
2022/10/15 07:27:01;;;;;;;;;;;14.10;99.90;;;;;;5096717;28;19912;-67
2022/10/15 07:29:26;;;;;;;;;;;14.00;99.90;;;;;;5096549;28;19909;-67
2022/10/15 07:31:52;;;;;;;;;;;14.10;99.90;;;;;;5096849;28;19908;-67
2022/10/15 07:34:17;;;;;;;;;;;14.10;99.90;;;;;;5096601;28;19970;-67
2022/10/15 07:36:42;;;;;;;;;;;14.10;99.90;;;;;;5096523;28;19914;-67
2022/10/15 07:39:08;;;;;;;;;;;14.20;99.90;;;;;;5096392;28;19934;-67
2022/10/15 07:41:34;;;;;;;;;;;14.20;99.90;;;;;;5095142;28;19916;-67
2022/10/15 07:43:59;;;;;;;;;;;14.20;99.90;;;;;;5096364;28;19985;-67
2022/10/15 07:46:25;;;;;;;;;;;14.30;99.90;;;;;;5096286;28;19999;-67
2022/10/15 07:48:51;;;;;;;;;;;14.40;99.90;;;;;;5096492;28;20014;-67
2022/10/15 07:51:16;;;;;;;;;;;14.50;99.90;;;;;;5096233;28;20388;-67
2022/10/15 07:53:42;;;;;;;;;;;14.80;99.90;;;;;;5096166;28;19909;-67
2022/10/15 07:56:10;;;;;;;;;;;14.80;99.90;;;;;;5096067;28;20392;-67
2022/10/15 07:58:37;;;;;;;;;;;14.90;99.90;;;;;;5095984;28;19908;-67
2022/10/15 08:01:03;;;;;;;;;;;14.90;99.90;;;;;;5095998;28;19919;-67
2022/10/15 08:03:29;;;;;;;;;;;14.80;99.90;;;;;;5095925;28;20372;-67
2022/10/15 08:05:55;;;;;;;;;;;14.80;99.90;;;;;;5096239;28;19934;-66
2022/10/15 08:08:21;;;;;;;;;;;14.80;99.90;;;;;;5096199;28;20361;-67
2022/10/15 08:10:46;;;;;;;;;;;14.90;99.90;;;;;;5094561;28;19908;-67
2022/10/15 08:13:12;;;;;;;;;;;14.90;99.90;;;;;;5095747;28;19908;-67
2022/10/15 08:15:38;;;;;;;;;;;15.30;99.90;;;;;;5094568;28;20015;-67
2022/10/15 08:18:04;;;;;;;;;;;16.70;99.90;;;;;;5095879;28;19947;-67
2022/10/15 08:20:29;;;;;;;;;;;17.00;99.90;;;;;;5095414;28;20384;-67
2022/10/15 08:22:55;;;;;;;;;;;17.80;99.90;;;;;;5095629;28;19916;-67
2022/10/15 08:25:20;;;;;;;;;;;18.10;99.90;;;;;;5095827;28;19930;-68
2022/10/15 08:27:46;;;;;;;;;;;18.00;99.90;;;;;;5095848;28;19908;-68
2022/10/15 08:30:11;;;;;;;;;;;18.30;99.90;;;;;;5095531;28;20056;-68
2022/10/15 08:32:37;;;;;;;;;;;18.90;99.90;;;;;;5095464;28;19908;-68
2022/10/15 08:35:02;;;;;;;;;;;19.10;99.90;;;;;;5094214;28;20415;-68
2022/10/15 08:37:28;;;;;;;;;;;19.10;99.90;;;;;;5095387;28;20386;-68
2022/10/15 08:39:53;;;;;;;;;;;19.00;99.90;;;;;;5095237;28;19997;-68
2022/10/15 08:42:21;;;;;;;;;;;19.10;99.90;;;;;;5095223;28;19915;-67
2022/10/15 08:44:50;;;;;;;;;;;18.90;99.90;;;;;;5093839;28;19914;-68
2022/10/15 08:47:35;;;;;;;;;;;19.00;99.90;;;;;;5095072;28;19935;-67
2022/10/15 08:50:21;;;;;;;;;;;18.70;99.90;;;;;;5094891;28;19908;-68
2022/10/15 08:52:48;;;;;;;;;;;18.40;99.90;;;;;;5094719;28;19916;-68
2022/10/15 08:55:15;;;;;;;;;;;18.60;99.90;;;;;;5095003;28;19965;-68
2022/10/15 08:57:51;;;;;;;;;;;19.10;99.90;;;;;;5094876;28;19908;-68
2022/10/15 09:00:22;;;;;;;;;;;18.80;99.90;;;;;;5094815;28;19912;-68
2022/10/15 09:02:52;;;;;;;;;;;18.70;99.90;;;;;;5094853;28;19908;-68
2022/10/15 09:05:23;;;;;;;;;;;18.70;99.90;;;;;;5095055;28;20329;-67
2022/10/15 09:07:56;;;;;;;;;;;19.00;99.90;;;;;;5094770;28;20015;-68
2022/10/15 09:10:41;;;;;;;;;;;19.10;99.90;;;;;;5094965;28;19968;-68
2022/10/15 09:13:17;;;;;;;;;;;19.40;99.90;;;;;;5094567;28;20412;-68
2022/10/15 09:15:50;;;;;;;;;;;20.10;99.90;;;;;;5093411;28;19977;-68
2022/10/15 09:18:18;;;;;;;;;;;20.40;99.90;;;;;;5093424;28;20369;-68
2022/10/15 09:20:44;;;;;;;;;;;20.50;99.90;;;;;;5094257;28;20388;-68
2022/10/15 09:23:16;;;;;;;;;;;20.20;99.90;;;;;;5094449;28;19908;-68
2022/10/15 09:25:44;;;;;;;;;;;20.30;99.90;;;;;;5094377;28;19958;-68
2022/10/15 09:28:10;;;;;;;;;;;20.10;99.90;;;;;;5094004;28;19915;-68
2022/10/15 09:30:38;;;;;;;;;;;20.00;99.90;;;;;;5094152;28;19908;-68
2022/10/15 09:33:16;;;;;;;;;;;19.60;99.90;;;;;;5094523;28;19967;-68
2022/10/15 09:35:45;;;;;;;;;;;19.70;99.90;;;;;;5094465;28;19912;-68
2022/10/15 09:38:31;;;;;;;;;;;19.40;99.90;;;;;;5094176;28;19915;-68
2022/10/15 09:41:09;;;;;;;;;;;18.70;99.90;;;;;;5093996;28;19919;-68
2022/10/15 09:43:36;;;;;;;;;;;18.20;99.90;;;;;;5094057;28;19915;-68
2022/10/15 09:46:02;;;;;;;;;;;18.80;99.90;;;;;;5093938;28;20007;-68
2022/10/15 09:48:30;;;;;;;;;;;18.70;99.90;;;;;;5094011;28;19957;-68
2022/10/15 09:51:02;;;;;;;;;;;18.70;99.90;;;;;;5094237;28;19908;-68
2022/10/15 09:53:38;;;;;;;;;;;18.40;99.90;;;;;;5093920;28;19909;-68
2022/10/15 09:56:12;;;;;;;;;;;18.30;99.90;;;;;;5093969;28;19908;-68
2022/10/15 09:58:43;;;;;;;;;;;18.50;99.90;;;;;;5093863;28;19908;-68
2022/10/15 10:01:18;;;;;;;;;;;18.90;99.90;;;;;;5094118;28;19912;-68
2022/10/15 10:03:44;;;;;;;;;;;19.40;99.90;;;;;;5092657;28;19912;-68
2022/10/15 10:06:10;;;;;;;;;;;19.70;99.90;;;;;;5094019;28;19954;-69
2022/10/15 10:08:38;;;;;;;;;;;19.80;99.90;;;;;;5094137;28;19998;-67
2022/10/15 10:11:07;;;;;;;;;;;19.20;99.90;;;;;;5093668;28;19909;-68
2022/10/15 10:13:36;;;;;;;;;;;18.90;99.90;;;;;;5093681;28;19915;-68
2022/10/15 10:16:04;;;;;;;;;;;19.30;99.90;;;;;;5093923;28;20014;-68
2022/10/15 10:18:31;;;;;;;;;;;19.30;99.90;;;;;;5093685;28;19960;-68
2022/10/15 10:20:58;;;;;;;;;;;19.00;99.90;;;;;;5093499;28;20006;-68
2022/10/15 10:23:27;;;;;;;;;;;19.50;99.90;;;;;;5093571;28;20270;-69
2022/10/15 10:25:54;;;;;;;;;;;20.10;99.90;;;;;;5093805;28;19915;-68
2022/10/15 10:28:25;;;;;;;;;;;20.00;99.90;;;;;;5093585;28;19962;-69
2022/10/15 10:30:59;;;;;;;;;;;20.00;99.90;;;;;;5093832;28;19916;-68
2022/10/15 10:33:37;;;;;;;;;;;19.90;99.90;;;;;;5093539;28;19914;-69
2022/10/15 10:36:04;;;;;;;;;;;20.70;99.90;;;;;;5093706;28;19908;-69
2022/10/15 10:38:32;;;;;;;;;;;21.50;99.90;;;;;;5093254;28;20380;-69
2022/10/15 10:41:04;;;;;;;;;;;20.70;99.90;;;;;;5094502;28;19947;-68
2022/10/15 10:43:30;;;;;;;;;;;20.20;99.90;;;;;;5096069;28;19908;-69
2022/10/15 10:46:00;;;;;;;;;;;20.70;99.90;;;;;;5097809;28;19915;-69
2022/10/15 10:48:28;;;;;;;;;;;20.30;99.90;;;;;;5097391;28;19908;-69
2022/10/15 10:51:01;;;;;;;;;;;20.80;99.90;;;;;;5097624;28;20387;-68
2022/10/15 10:53:27;;;;;;;;;;;20.30;99.90;;;;;;5097580;28;19908;-68
2022/10/15 10:55:54;;;;;;;;;;;20.10;99.90;;;;;;5097277;28;20288;-68
2022/10/15 10:58:20;;;;;;;;;;;19.90;99.90;;;;;;5097237;28;19958;-68
2022/10/15 11:00:48;;;;;;;;;;;20.10;99.90;;;;;;5097113;28;19967;-69
2022/10/15 11:03:33;;;;;;;;;;;19.90;99.90;;;;;;5097096;28;19957;-68
2022/10/15 11:06:18;;;;;;;;;;;19.80;99.90;;;;;;5096987;28;19955;-68
2022/10/15 11:09:04;;;;;;;;;;;19.80;99.90;;;;;;5096993;28;19908;-69
2022/10/15 11:11:49;;;;;;;;;;;19.50;99.90;;;;;;5096869;28;19908;-68
2022/10/15 11:14:35;;;;;;;;;;;19.10;99.90;;;;;;5096903;28;19915;-68
2022/10/15 11:17:20;;;;;;;;;;;18.90;99.90;;;;;;5096793;28;19962;-70
2022/10/15 11:22:35;;;;;;;;;;;18.60;99.90;;;;;;5144801;27;20036;-68
2022/10/15 11:25:20;;;;;;;;;;;18.50;99.90;;;;;;5110269;28;20381;-68
2022/10/15 11:28:05;;;;;;;;;;;18.60;99.90;;;;;;5111257;28;20404;-68
2022/10/15 11:30:37;;;;;;;;;;;18.60;99.90;;;;;;5111234;28;20018;-68
2022/10/15 11:33:22;;;;;;;;;;;18.60;99.90;;;;;;5111235;28;19908;-68
2022/10/15 11:35:53;;;;;;;;;;;19.10;99.90;;;;;;5111160;28;20395;-70
2022/10/15 11:38:29;;;;;;;;;;;19.30;99.90;;;;;;5111417;28;19915;-68
2022/10/15 11:41:10;;;;;;;;;;;19.40;99.90;;;;;;5109756;28;19977;-68
2022/10/15 11:43:56;;;;;;;;;;;19.30;99.90;;;;;;5111032;28;19915;-68
2022/10/15 11:46:27;;;;;;;;;;;19.40;99.90;;;;;;5111008;28;19959;-68
2022/10/15 11:49:12;;;;;;;;;;;19.30;99.90;;;;;;5110959;28;19908;-68
2022/10/15 11:51:59;;;;;;;;;;;19.10;99.90;;;;;;5110808;28;19919;-68
2022/10/15 11:54:29;;;;;;;;;;;19.00;99.90;;;;;;5110866;28;20265;-68
2022/10/15 11:56:56;;;;;;;;;;;19.00;99.90;;;;;;5110810;28;19912;-69
2022/10/15 11:59:27;;;;;;;;;;;19.00;99.90;;;;;;5109544;28;20001;-68
2022/10/15 12:01:57;;;;;;;;;;;18.60;99.90;;;;;;5110613;28;20399;-69
2022/10/15 12:04:28;;;;;;;;;;;18.30;99.90;;;;;;5110925;28;19912;-68
2022/10/15 12:07:00;;;;;;;;;;;18.10;99.90;;;;;;5110657;28;19918;-68
2022/10/15 12:09:29;;;;;;;;;;;18.00;99.90;;;;;;5092449;28;19958;-68
2022/10/15 12:11:58;;;;;;;;;;;17.80;99.90;;;;;;5109455;28;19908;-68
2022/10/15 12:14:27;;;;;;;;;;;17.70;99.90;;;;;;5110624;28;19951;-68
2022/10/15 12:16:57;;;;;;;;;;;17.60;99.90;;;;;;5110770;28;19957;-68
2022/10/15 12:19:25;;;;;;;;;;;17.70;99.90;;;;;;5110548;28;20380;-68
2022/10/15 12:21:56;;;;;;;;;;;17.70;99.90;;;;;;5109914;28;19924;-68
2022/10/15 12:24:43;;;;;;;;;;;17.80;99.90;;;;;;5110116;28;19915;-68
2022/10/15 12:27:29;;;;;;;;;;;17.90;99.90;;;;;;5110211;28;19908;-68
2022/10/15 12:32:40;;;;;;;;;;;18.00;99.90;;;;;;5144696;27;19913;-67
2022/10/15 12:35:17;;;;;;;;;;;18.00;99.90;;;;;;5110292;28;19912;-68
2022/10/15 12:37:44;;;;;;;;;;;18.10;99.90;;;;;;5111249;28;19908;-68
2022/10/15 12:40:27;;;;;;;;;;;18.10;99.90;;;;;;5111446;28;20471;-69
2022/10/15 12:42:55;;;;;;;;;;;18.10;99.90;;;;;;5111459;28;20262;-68
2022/10/15 12:45:22;;;;;;;;;;;18.10;99.90;;;;;;5109954;28;19912;-68
2022/10/15 12:47:49;;;;;;;;;;;18.20;99.90;;;;;;5111080;28;19915;-68
2022/10/15 12:50:18;;;;;;;;;;;18.30;99.90;;;;;;5110958;28;19917;-67
2022/10/15 12:53:00;;;;;;;;;;;18.30;99.90;;;;;;5110953;28;19916;-68
2022/10/15 12:55:28;;;;;;;;;;;18.30;99.90;;;;;;5110897;28;19908;-68
2022/10/15 12:57:56;;;;;;;;;;;18.40;99.90;;;;;;5109701;28;19908;-68
2022/10/15 13:03:08;;;;;;;;;;;18.50;99.90;;;;;;5079723;28;19948;-68
2022/10/15 13:05:34;;;;;;;;;;;18.50;99.90;;;;;;5047272;28;19913;-68
2022/10/15 13:08:02;;;;;;;;;;;18.60;99.90;;;;;;5047247;28;19915;-68
2022/10/15 13:10:29;;;;;;;;;;;18.60;99.90;;;;;;5047236;28;19962;-68
2022/10/15 13:12:56;;;;;;;;;;;18.70;99.90;;;;;;5047155;28;19947;-68
2022/10/15 13:15:24;;;;;;;;;;;18.70;99.90;;;;;;5047320;28;19913;-68
2022/10/15 13:17:50;;;;;;;;;;;18.70;99.90;;;;;;5047026;28;19916;-68
2022/10/15 13:20:35;;;;;;;;;;;18.70;99.90;;;;;;5047319;28;19917;-68
2022/10/15 13:23:17;;;;;;;;;;;18.80;99.90;;;;;;5046801;28;19913;-68
2022/10/15 13:25:43;;;;;;;;;;;18.80;99.90;;;;;;5046782;28;19913;-68
2022/10/15 13:28:28;;;;;;;;;;;18.80;99.90;;;;;;5046799;28;19909;-67
2022/10/15 13:30:54;;;;;;;;;;;18.90;99.90;;;;;;5046724;28;19917;-68
2022/10/15 13:33:20;;;;;;;;;;;19.00;99.90;;;;;;5046777;28;19909;-68
2022/10/15 13:35:46;;;;;;;;;;;19.10;99.90;;;;;;5029099;28;19909;-68
2022/10/15 13:38:19;;;;;;;;;;;19.10;99.90;;;;;;5046784;28;19909;-68
2022/10/15 13:40:47;;;;;;;;;;;19.10;99.90;;;;;;5046679;28;19916;-68
2022/10/15 13:43:17;;;;;;;;;;;19.00;99.90;;;;;;5045497;27;19909;-68
2022/10/15 13:45:46;;;;;;;;;;;19.00;99.90;;;;;;5045385;27;19913;-68
2022/10/15 13:48:12;;;;;;;;;;;19.00;99.90;;;;;;5046567;28;19931;-69
2022/10/15 13:50:38;;;;;;;;;;;18.90;99.90;;;;;;5045264;28;19909;-68
2022/10/15 13:53:16;;;;;;;;;;;18.90;99.90;;;;;;5046547;28;20293;-68
2022/10/15 13:55:44;;;;;;;;;;;18.90;99.90;;;;;;5046535;28;20370;-68
2022/10/15 14:00:50;;;;;;;;;;;19.10;99.90;;;;;;5144684;27;19912;-67
2022/10/15 14:03:20;;;;;;;;;;;19.10;99.90;;;;;;5111621;28;19912;-68
2022/10/15 14:05:47;;;;;;;;;;;19.00;99.90;;;;;;5110496;28;19908;-68
2022/10/15 14:08:15;;;;;;;;;;;19.10;99.90;;;;;;5111452;28;20361;-68
2022/10/15 14:10:40;;;;;;;;;;;19.20;99.90;;;;;;5092938;28;19912;-67
2022/10/15 14:13:07;;;;;;;;;;;19.20;99.90;;;;;;5111157;28;19930;-68
2022/10/15 14:15:42;;;;;;;;;;;19.20;99.90;;;;;;5111080;28;19915;-67
2022/10/15 14:18:07;;;;;;;;;;;19.20;99.90;;;;;;5111333;28;19998;-68
2022/10/15 14:20:33;;;;;;;;;;;19.30;99.90;;;;;;5110940;28;20014;-68
2022/10/15 14:22:58;;;;;;;;;;;19.20;99.90;;;;;;5110942;28;19908;-67
2022/10/15 14:25:24;;;;;;;;;;;19.20;99.90;;;;;;5109962;28;19908;-67
2022/10/15 14:27:50;;;;;;;;;;;19.10;99.90;;;;;;5111186;28;19959;-68
2022/10/15 14:30:21;;;;;;;;;;;19.00;99.90;;;;;;5110839;28;19908;-68
2022/10/15 14:32:47;;;;;;;;;;;19.00;99.90;;;;;;5110829;28;19908;-68
2022/10/15 14:35:35;;;;;;;;;;;19.10;99.90;;;;;;5110725;28;19919;-67
2022/10/15 14:38:03;;;;;;;;;;;19.10;99.90;;;;;;5111011;28;19912;-68